Time;durP1;ratioP1;P1;durP2;ratioP2;P2;SDS_P1;SDS_P2;PMS_P1;PMS_P2;Temp;Humidity;BMP_temperature;BMP_pressure;BME280_temperature;BME280_humidity;BME280_pressure;Samples;Min_cycle;Max_cycle;Signal;HPM_P1;HPM_P2
2021/10/13 00:00:53;;;;;;;8.77;8.07;;;6.30;89.30;;;;;;5213090;28;20064;-67
2021/10/13 00:03:25;;;;;;;9.25;8.55;;;6.20;89.50;;;;;;5215625;28;20045;-66
2021/10/13 00:05:57;;;;;;;8.43;7.72;;;6.20;89.30;;;;;;5216030;28;20052;-66
2021/10/13 00:08:29;;;;;;;8.60;7.90;;;6.20;88.80;;;;;;5216643;28;20123;-66
2021/10/13 00:11:01;;;;;;;8.45;7.85;;;6.20;88.30;;;;;;5217699;28;20155;-66
2021/10/13 00:13:33;;;;;;;8.82;8.13;;;6.10;87.60;;;;;;5217327;28;20108;-66
2021/10/13 00:16:05;;;;;;;8.82;8.13;;;6.00;87.90;;;;;;5215796;28;20496;-66
2021/10/13 00:18:37;;;;;;;8.65;7.95;;;6.00;87.90;;;;;;5216460;28;20044;-66
2021/10/13 00:21:09;;;;;;;8.48;7.78;;;6.00;88.50;;;;;;5216673;28;20049;-66
2021/10/13 00:23:41;;;;;;;8.35;7.60;;;6.00;88.30;;;;;;5216417;28;20072;-66
2021/10/13 00:26:13;;;;;;;8.63;7.93;;;5.90;88.40;;;;;;5216421;28;20132;-66
2021/10/13 00:28:45;;;;;;;8.43;7.72;;;5.90;89.00;;;;;;5217637;28;20041;-66
2021/10/13 00:31:17;;;;;;;8.77;8.00;;;5.90;88.80;;;;;;5215928;28;20502;-66
2021/10/13 00:33:49;;;;;;;8.52;7.82;;;5.80;88.40;;;;;;5216444;28;20122;-65
2021/10/13 00:36:21;;;;;;;8.50;7.80;;;5.90;88.80;;;;;;5213432;28;20129;-66
2021/10/13 00:38:53;;;;;;;8.50;7.80;;;5.90;88.40;;;;;;5215225;28;20128;-65
2021/10/13 00:41:24;;;;;;;8.70;8.00;;;5.90;88.50;;;;;;5216629;28;20131;-66
2021/10/13 00:43:56;;;;;;;8.75;8.05;;;5.90;87.50;;;;;;5215480;28;20136;-65
2021/10/13 00:46:28;;;;;;;9.00;8.20;;;5.70;88.10;;;;;;5215806;28;20041;-65
2021/10/13 00:49:01;;;;;;;8.80;8.10;;;5.70;88.10;;;;;;5216327;28;20583;-66
2021/10/13 00:51:33;;;;;;;8.52;7.82;;;5.70;88.30;;;;;;5217368;28;20123;-67
2021/10/13 00:54:06;;;;;;;8.40;7.70;;;5.70;88.60;;;;;;5216384;28;20051;-65
2021/10/13 00:56:38;;;;;;;8.63;7.93;;;5.80;88.50;;;;;;5215877;28;20146;-66
2021/10/13 00:59:10;;;;;;;8.68;7.95;;;5.80;88.10;;;;;;5217459;28;20035;-66
2021/10/13 01:01:52;;;;;;;8.82;8.13;;;5.80;88.40;;;;;;5216688;28;20045;-67
2021/10/13 01:04:35;;;;;;;8.90;8.15;;;5.80;88.70;;;;;;5216821;28;20079;-65
2021/10/13 01:07:45;;;;;;;8.75;8.05;;;5.80;89.00;;;;;;5215572;28;20132;-65
2021/10/13 01:10:39;;;;;;;8.90;8.20;;;5.80;89.10;;;;;;5214561;28;20060;-67
2021/10/13 01:13:23;;;;;;;8.95;8.15;;;5.70;89.20;;;;;;5216203;28;20060;-66
2021/10/13 01:16:10;;;;;;;8.60;7.90;;;5.70;89.10;;;;;;5214590;28;20045;-66
2021/10/13 01:19:03;;;;;;;8.90;8.20;;;5.80;89.40;;;;;;5215981;28;20049;-67
2021/10/13 01:21:50;;;;;;;9.15;8.45;;;5.80;89.10;;;;;;5216363;28;20548;-66
2021/10/13 01:24:46;;;;;;;9.10;8.40;;;5.80;89.30;;;;;;5216233;28;20069;-66
2021/10/13 01:27:26;;;;;;;9.35;8.65;;;5.80;89.10;;;;;;5214159;28;20438;-67
2021/10/13 01:30:01;;;;;;;9.38;8.68;;;5.70;88.90;;;;;;5214183;28;20041;-68
2021/10/13 01:32:37;;;;;;;9.10;8.40;;;5.80;89.10;;;;;;5215763;28;20185;-66
2021/10/13 01:35:12;;;;;;;9.40;8.70;;;5.80;89.00;;;;;;5215564;28;20048;-67
2021/10/13 01:37:52;;;;;;;9.23;8.52;;;5.70;89.40;;;;;;5215442;28;20040;-66
2021/10/13 01:40:30;;;;;;;9.10;8.40;;;5.70;89.70;;;;;;5214699;28;20103;-66
2021/10/13 01:43:05;;;;;;;9.00;8.20;;;5.60;90.70;;;;;;5216780;28;20586;-67
2021/10/13 01:45:39;;;;;;;9.00;8.30;;;5.60;90.90;;;;;;5213285;28;20127;-66
2021/10/13 01:48:13;;;;;;;8.95;8.25;;;5.60;91.00;;;;;;5213632;28;20069;-67
2021/10/13 01:50:46;;;;;;;8.85;8.15;;;5.50;90.80;;;;;;5215136;28;20040;-65
2021/10/13 01:53:22;;;;;;;9.18;8.48;;;5.40;90.60;;;;;;5215684;28;20120;-65
2021/10/13 01:55:57;;;;;;;9.55;8.85;;;5.50;90.60;;;;;;5213499;28;20045;-66
2021/10/13 01:58:30;;;;;;;9.32;8.52;;;5.60;90.50;;;;;;5216007;28;20549;-66
2021/10/13 02:01:04;;;;;;;9.38;8.63;;;5.60;90.40;;;;;;5214336;28;20041;-66
2021/10/13 02:03:37;;;;;;;9.00;8.30;;;5.60;90.70;;;;;;5214096;28;20152;-66
2021/10/13 02:06:09;;;;;;;9.27;8.48;;;5.40;91.20;;;;;;5213852;28;20620;-68
2021/10/13 02:08:42;;;;;;;9.30;8.60;;;5.30;91.30;;;;;;5214681;28;20120;-67
2021/10/13 02:11:15;;;;;;;9.13;8.43;;;5.20;91.60;;;;;;5215006;28;20463;-66
2021/10/13 02:13:49;;;;;;;9.02;8.32;;;5.10;91.90;;;;;;5213260;28;20041;-67
2021/10/13 02:16:22;;;;;;;8.98;8.27;;;5.10;91.90;;;;;;5212639;28;20396;-66
2021/10/13 02:18:57;;;;;;;9.20;8.43;;;5.10;91.80;;;;;;5213846;28;20045;-66
2021/10/13 02:21:31;;;;;;;8.98;8.27;;;5.10;91.50;;;;;;5214560;28;20144;-66
2021/10/13 02:24:04;;;;;;;9.25;8.55;;;5.20;91.40;;;;;;5213168;28;20122;-67
2021/10/13 02:26:46;;;;;;;9.10;8.40;;;5.30;90.60;;;;;;5212316;28;20457;-67
2021/10/13 02:29:20;;;;;;;9.00;8.30;;;5.30;90.60;;;;;;5213898;28;20124;-65
2021/10/13 02:31:52;;;;;;;8.80;8.10;;;5.30;90.40;;;;;;5212215;28;20053;-67
2021/10/13 02:34:24;;;;;;;8.98;8.27;;;5.30;90.40;;;;;;5214198;28;20064;-68
2021/10/13 02:36:56;;;;;;;8.80;8.10;;;5.20;90.60;;;;;;5212332;28;20132;-66
2021/10/13 02:39:28;;;;;;;8.75;8.05;;;5.20;90.70;;;;;;5215049;28;20156;-67
2021/10/13 02:42:01;;;;;;;9.18;8.48;;;5.30;90.80;;;;;;5212549;28;20049;-67
2021/10/13 02:44:34;;;;;;;8.63;7.93;;;5.40;90.70;;;;;;5215633;28;20052;-66
2021/10/13 02:47:21;;;;;;;8.98;8.27;;;5.40;90.50;;;;;;5211058;28;20127;-66
2021/10/13 02:50:25;;;;;;;8.70;8.00;;;5.50;89.70;;;;;;5215128;28;20057;-66
2021/10/13 02:53:15;;;;;;;8.80;8.10;;;5.50;89.80;;;;;;5214612;28;20076;-66
2021/10/13 02:55:57;;;;;;;8.73;8.02;;;5.50;89.50;;;;;;5212713;28;20044;-66
2021/10/13 02:59:07;;;;;;;8.80;8.00;;;5.40;88.20;;;;;;5214696;28;20117;-67
2021/10/13 03:01:44;;;;;;;8.30;7.70;;;5.30;88.90;;;;;;5168618;28;20212;-66
2021/10/13 03:04:24;;;;;;;8.30;7.60;;;5.40;88.90;;;;;;5207346;28;20422;-66
2021/10/13 03:07:05;;;;;;;8.18;7.57;;;5.30;88.70;;;;;;5228031;28;20049;-66
2021/10/13 03:09:39;;;;;;;8.40;7.80;;;5.40;88.80;;;;;;5214309;28;20351;-67
2021/10/13 03:12:13;;;;;;;8.27;7.50;;;5.40;89.00;;;;;;5213516;28;20542;-66
2021/10/13 03:14:49;;;;;;;8.32;7.63;;;5.50;89.70;;;;;;5214311;28;20175;-66
2021/10/13 03:17:23;;;;;;;8.00;7.40;;;5.50;89.50;;;;;;5212168;28;20037;-66
2021/10/13 03:19:56;;;;;;;8.68;7.97;;;5.50;89.60;;;;;;5214208;28;20576;-65
2021/10/13 03:22:29;;;;;;;8.10;7.50;;;5.40;89.60;;;;;;5214057;28;20537;-66
2021/10/13 03:25:01;;;;;;;8.25;7.55;;;5.40;89.80;;;;;;5214034;28;20167;-66
2021/10/13 03:27:33;;;;;;;7.80;7.10;;;5.40;89.80;;;;;;5212417;28;20634;-68
2021/10/13 03:30:06;;;;;;;8.00;7.40;;;5.40;90.00;;;;;;5213420;28;20513;-68
2021/10/13 03:32:37;;;;;;;8.10;7.50;;;5.40;89.70;;;;;;5215121;28;20087;-66
2021/10/13 03:35:10;;;;;;;8.38;7.68;;;5.40;90.30;;;;;;5214011;28;20043;-66
2021/10/13 03:37:43;;;;;;;8.20;7.60;;;5.30;90.60;;;;;;5213211;28;20110;-66
2021/10/13 03:40:16;;;;;;;8.07;7.40;;;5.30;90.60;;;;;;5217476;28;20422;-66
2021/10/13 03:42:48;;;;;;;7.80;7.20;;;5.30;90.30;;;;;;5219498;28;20044;-66
2021/10/13 03:45:21;;;;;;;7.82;7.22;;;5.30;90.20;;;;;;5217198;28;20865;-66
2021/10/13 03:47:53;;;;;;;7.70;7.10;;;5.40;90.00;;;;;;5218273;28;20219;-66
2021/10/13 03:50:25;;;;;;;8.38;7.68;;;5.40;89.80;;;;;;5217912;28;20132;-66
2021/10/13 03:52:58;;;;;;;8.30;7.60;;;5.30;90.40;;;;;;5217707;28;20567;-67
2021/10/13 03:55:30;;;;;;;7.90;7.25;;;5.30;90.30;;;;;;5217488;28;20083;-66
2021/10/13 03:58:02;;;;;;;7.00;6.40;;;5.30;90.60;;;;;;5216795;28;20445;-66
2021/10/13 04:00:34;;;;;;;7.60;7.00;;;5.30;91.20;;;;;;5216194;28;20518;-66
2021/10/13 04:03:06;;;;;;;8.20;7.60;;;5.30;90.90;;;;;;5217940;28;20037;-66
2021/10/13 04:05:38;;;;;;;7.55;6.95;;;5.30;91.30;;;;;;5215960;28;20140;-66
2021/10/13 04:08:09;;;;;;;7.90;7.20;;;5.20;91.40;;;;;;5216784;28;20041;-65
2021/10/13 04:10:42;;;;;;;7.65;7.05;;;5.30;91.10;;;;;;5215798;28;20063;-66
2021/10/13 04:13:14;;;;;;;7.50;6.90;;;5.20;90.90;;;;;;5218158;28;20091;-67
2021/10/13 04:15:46;;;;;;;7.70;7.00;;;5.20;90.90;;;;;;5216142;28;20346;-66
2021/10/13 04:18:18;;;;;;;7.80;7.20;;;5.30;91.50;;;;;;5216343;28;20151;-67
2021/10/13 04:20:49;;;;;;;7.60;7.00;;;5.30;90.60;;;;;;5215781;28;20037;-65
2021/10/13 04:23:21;;;;;;;7.47;6.88;;;5.40;90.30;;;;;;5217264;28;20041;-66
2021/10/13 04:25:53;;;;;;;7.80;7.20;;;5.40;90.20;;;;;;5213855;28;20143;-66
2021/10/13 04:28:25;;;;;;;7.05;6.45;;;5.40;90.30;;;;;;5217188;28;20126;-66
2021/10/13 04:30:57;;;;;;;7.63;6.93;;;5.40;90.40;;;;;;5216438;28;20574;-65
2021/10/13 04:33:29;;;;;;;7.50;6.80;;;5.40;90.40;;;;;;5217421;28;20123;-66
2021/10/13 04:36:01;;;;;;;7.45;6.75;;;5.40;90.60;;;;;;5216711;28;20056;-65
2021/10/13 04:38:33;;;;;;;7.80;7.10;;;5.40;90.00;;;;;;5216645;28;20045;-66
2021/10/13 04:41:05;;;;;;;7.07;6.45;;;5.50;89.60;;;;;;5216090;28;20056;-66
2021/10/13 04:43:37;;;;;;;6.80;6.20;;;5.30;89.70;;;;;;5214939;28;20078;-67
2021/10/13 04:46:09;;;;;;;6.82;6.22;;;5.10;90.50;;;;;;5216019;28;20048;-66
2021/10/13 04:48:40;;;;;;;7.20;6.60;;;5.00;90.80;;;;;;5214517;28;20450;-67
2021/10/13 04:51:12;;;;;;;7.00;6.40;;;5.00;91.20;;;;;;5215740;28;20809;-66
2021/10/13 04:53:44;;;;;;;7.18;6.50;;;5.10;90.80;;;;;;5214787;28;20110;-66
2021/10/13 04:56:16;;;;;;;6.97;6.38;;;5.00;90.70;;;;;;5214645;28;20151;-66
2021/10/13 04:58:48;;;;;;;6.15;5.65;;;5.00;90.90;;;;;;5216084;28;20051;-67
2021/10/13 05:01:20;;;;;;;6.50;5.90;;;5.00;90.90;;;;;;5216027;28;20124;-66
2021/10/13 05:03:52;;;;;;;6.75;6.15;;;5.10;91.10;;;;;;5214637;28;20076;-67
2021/10/13 05:06:24;;;;;;;6.60;6.00;;;5.10;92.00;;;;;;5213110;28;20148;-66
2021/10/13 05:08:56;;;;;;;6.85;6.25;;;5.20;91.00;;;;;;5214711;28;20519;-65
2021/10/13 05:11:28;;;;;;;6.68;6.00;;;5.20;90.80;;;;;;5214001;28;20114;-66
2021/10/13 05:14:00;;;;;;;6.28;5.68;;;5.20;90.60;;;;;;5213588;28;20052;-66
2021/10/13 05:16:33;;;;;;;6.25;5.65;;;5.20;90.50;;;;;;5208149;28;20044;-64
2021/10/13 05:19:05;;;;;;;6.32;5.72;;;5.20;90.50;;;;;;5213930;28;20045;-65
2021/10/13 05:21:37;;;;;;;6.60;6.00;;;5.20;90.20;;;;;;5215656;28;20053;-65
2021/10/13 05:24:11;;;;;;;6.75;6.15;;;5.20;90.30;;;;;;5214385;28;20079;-65
2021/10/13 05:26:43;;;;;;;7.00;6.30;;;5.30;90.40;;;;;;5216811;28;20075;-65
2021/10/13 05:29:15;;;;;;;7.13;6.50;;;5.20;90.70;;;;;;5214927;28;20128;-65
2021/10/13 05:31:47;;;;;;;7.20;6.60;;;5.20;90.50;;;;;;5217018;28;20077;-67
2021/10/13 05:34:19;;;;;;;6.93;6.28;;;5.20;90.40;;;;;;5216375;28;20116;-65
2021/10/13 05:36:51;;;;;;;6.75;6.15;;;5.30;90.60;;;;;;5215036;28;20040;-64
2021/10/13 05:39:23;;;;;;;6.85;6.25;;;5.20;90.40;;;;;;5217215;28;20099;-64
2021/10/13 05:41:55;;;;;;;6.80;6.20;;;5.20;90.60;;;;;;5213632;28;20053;-65
2021/10/13 05:44:27;;;;;;;6.70;6.10;;;5.20;90.80;;;;;;5214655;28;20072;-64
2021/10/13 05:47:00;;;;;;;6.82;6.22;;;5.20;90.70;;;;;;5213259;28;20156;-64
2021/10/13 05:49:32;;;;;;;7.10;6.50;;;5.20;90.50;;;;;;5217552;28;20041;-64
2021/10/13 05:52:07;;;;;;;7.20;6.43;;;5.20;90.60;;;;;;5215204;28;20049;-64
2021/10/13 05:54:39;;;;;;;7.20;6.60;;;5.30;90.60;;;;;;5196295;28;20044;-64
2021/10/13 05:57:12;;;;;;;6.75;6.15;;;5.30;90.60;;;;;;5214844;28;20063;-64
2021/10/13 05:59:47;;;;;;;6.80;6.20;;;5.30;90.50;;;;;;5211549;28;20102;-65
2021/10/13 06:02:19;;;;;;;6.70;6.10;;;5.30;90.40;;;;;;5218627;28;20984;-65
2021/10/13 06:04:52;;;;;;;7.72;6.78;;;5.30;90.40;;;;;;5220105;28;20983;-64
2021/10/13 06:07:24;;;;;;;6.55;5.95;;;5.30;90.60;;;;;;5220427;28;20515;-64
2021/10/13 06:09:56;;;;;;;6.78;6.13;;;5.30;90.60;;;;;;5214396;28;20978;-67
2021/10/13 06:12:29;;;;;;;6.70;6.10;;;5.30;90.60;;;;;;5215002;28;20047;-64
2021/10/13 06:15:01;;;;;;;6.50;5.90;;;5.30;90.60;;;;;;5214593;28;20126;-66
2021/10/13 06:17:33;;;;;;;6.40;5.80;;;5.30;90.80;;;;;;5217990;28;20114;-64
2021/10/13 06:20:06;;;;;;;8.13;6.05;;;5.30;90.70;;;;;;5218661;28;20103;-65
2021/10/13 06:22:38;;;;;;;6.50;5.90;;;5.40;90.50;;;;;;5219553;28;20450;-64
2021/10/13 06:25:10;;;;;;;6.50;5.90;;;5.30;90.40;;;;;;5216707;28;20111;-64
2021/10/13 06:27:43;;;;;;;6.82;6.22;;;5.30;90.40;;;;;;5217410;28;20056;-64
2021/10/13 06:30:15;;;;;;;6.50;5.90;;;5.20;90.80;;;;;;5211930;28;20055;-65
2021/10/13 06:32:47;;;;;;;6.40;5.80;;;5.30;90.90;;;;;;5215135;28;20048;-66
2021/10/13 06:35:19;;;;;;;6.65;6.03;;;5.20;90.70;;;;;;5213525;28;20033;-65
2021/10/13 06:37:51;;;;;;;6.70;6.10;;;5.30;90.80;;;;;;5216194;28;20045;-65
2021/10/13 06:40:23;;;;;;;7.05;6.45;;;5.30;90.70;;;;;;5214490;28;20422;-66
2021/10/13 06:42:55;;;;;;;7.10;6.50;;;5.30;90.60;;;;;;5216083;28;20467;-65
2021/10/13 06:45:27;;;;;;;7.40;6.70;;;5.30;90.80;;;;;;5214402;28;20581;-65
2021/10/13 06:47:59;;;;;;;7.50;6.80;;;5.30;91.50;;;;;;5215331;28;20044;-65
2021/10/13 06:50:31;;;;;;;7.00;6.30;;;5.40;91.20;;;;;;5214619;28;20127;-65
2021/10/13 06:53:04;;;;;;;7.70;7.00;;;5.40;91.30;;;;;;5216508;28;20058;-66
2021/10/13 06:55:38;;;;;;;7.95;7.25;;;5.40;91.50;;;;;;5213952;28;20107;-66
2021/10/13 06:58:10;;;;;;;8.57;7.78;;;5.50;91.30;;;;;;5215457;28;20131;-65
2021/10/13 07:00:41;;;;;;;8.50;7.60;;;5.60;91.20;;;;;;5213802;28;20133;-65
2021/10/13 07:03:13;;;;;;;8.35;7.55;;;5.60;90.80;;;;;;5215983;28;20116;-66
2021/10/13 07:05:46;;;;;;;7.90;7.20;;;5.70;90.30;;;;;;5214756;28;20396;-66
2021/10/13 07:08:18;;;;;;;7.85;7.15;;;5.80;90.10;;;;;;5215768;28;20053;-66
2021/10/13 07:10:50;;;;;;;8.70;7.70;;;5.90;90.10;;;;;;5214815;28;20407;-66
2021/10/13 07:13:22;;;;;;;7.93;7.22;;;6.00;89.70;;;;;;5219005;28;20048;-66
2021/10/13 07:15:53;;;;;;;8.20;7.50;;;6.20;89.50;;;;;;5218711;28;20562;-65
2021/10/13 07:18:25;;;;;;;7.90;7.20;;;6.30;89.00;;;;;;5220199;28;20053;-66
2021/10/13 07:20:58;;;;;;;7.82;7.15;;;6.40;89.10;;;;;;5217884;28;20407;-65
2021/10/13 07:23:30;;;;;;;7.95;7.25;;;6.50;88.30;;;;;;5218294;28;20064;-66
2021/10/13 07:26:02;;;;;;;10.00;9.10;;;6.70;88.60;;;;;;5217288;28;20059;-66
2021/10/13 07:28:39;;;;;;;8.60;7.90;;;6.90;88.10;;;;;;5217535;28;20044;-66
2021/10/13 07:31:11;;;;;;;8.20;7.50;;;7.00;87.40;;;;;;5217954;28;20146;-66
2021/10/13 07:33:43;;;;;;;9.45;8.57;;;7.20;86.80;;;;;;5218461;28;20519;-65
2021/10/13 07:36:15;;;;;;;9.20;8.40;;;7.30;87.30;;;;;;5219041;28;20135;-65
2021/10/13 07:38:47;;;;;;;9.07;8.27;;;7.40;86.70;;;;;;5219056;28;20067;-65
2021/10/13 07:41:19;;;;;;;8.30;7.60;;;7.60;85.30;;;;;;5219255;28;20053;-66
2021/10/13 07:43:51;;;;;;;8.70;7.90;;;7.70;85.40;;;;;;5194567;28;20127;-67
2021/10/13 07:46:25;;;;;;;8.63;7.82;;;7.80;83.60;;;;;;5218752;28;20240;-66
2021/10/13 07:48:57;;;;;;;8.10;7.40;;;7.90;82.90;;;;;;5219071;28;20040;-66
2021/10/13 07:51:28;;;;;;;7.43;6.82;;;7.90;83.70;;;;;;5219282;28;20037;-65
2021/10/13 07:54:00;;;;;;;7.60;7.00;;;7.90;82.80;;;;;;5219984;28;20134;-65
2021/10/13 07:56:32;;;;;;;8.30;7.60;;;7.80;82.40;;;;;;5218147;28;20036;-66
2021/10/13 07:59:04;;;;;;;13.38;12.07;;;7.70;83.10;;;;;;5219581;28;20645;-66
2021/10/13 08:01:36;;;;;;;10.50;9.50;;;7.80;82.60;;;;;;5217899;28;20511;-66
2021/10/13 08:04:08;;;;;;;8.98;8.18;;;7.90;83.30;;;;;;5219639;28;20580;-66
2021/10/13 08:06:40;;;;;;;8.13;7.43;;;8.00;84.50;;;;;;5218145;28;20040;-67
2021/10/13 08:09:12;;;;;;;8.20;7.50;;;8.00;82.00;;;;;;5218778;28;20044;-66
2021/10/13 08:11:49;;;;;;;10.07;9.10;;;8.00;81.90;;;;;;5218477;28;20156;-66
2021/10/13 08:14:21;;;;;;;9.13;8.32;;;8.00;83.20;;;;;;5219475;28;20656;-66
2021/10/13 08:16:53;;;;;;;9.73;8.73;;;8.20;84.00;;;;;;5217292;28;20056;-65
2021/10/13 08:19:25;;;;;;;9.52;8.63;;;8.50;84.30;;;;;;5219227;28;20099;-65
2021/10/13 08:21:57;;;;;;;8.60;7.90;;;8.60;82.80;;;;;;5217505;28;20148;-66
2021/10/13 08:24:29;;;;;;;8.32;7.63;;;8.50;81.60;;;;;;5218420;28;20660;-65
2021/10/13 08:27:02;;;;;;;9.15;8.40;;;8.40;82.10;;;;;;5217132;28;20547;-66
2021/10/13 08:29:34;;;;;;;9.23;8.43;;;8.60;83.30;;;;;;5217122;28;20470;-65
2021/10/13 08:32:06;;;;;;;9.48;8.68;;;8.80;81.40;;;;;;5216513;28;20475;-66
2021/10/13 08:34:38;;;;;;;9.20;8.45;;;8.90;79.70;;;;;;5218398;28;20393;-65
2021/10/13 08:37:10;;;;;;;9.85;9.05;;;9.00;79.50;;;;;;5218603;28;20073;-65
2021/10/13 08:39:42;;;;;;;9.93;9.13;;;9.20;80.80;;;;;;5218087;28;20057;-65
2021/10/13 08:42:20;;;;;;;9.75;8.95;;;9.50;78.60;;;;;;5218111;28;20126;-66
2021/10/13 08:44:53;;;;;;;9.70;8.80;;;9.70;77.30;;;;;;5218406;28;20721;-66
2021/10/13 08:47:25;;;;;;;9.88;9.02;;;9.80;76.60;;;;;;5216009;28;20047;-66
2021/10/13 08:49:57;;;;;;;10.15;9.30;;;9.90;76.50;;;;;;5218170;28;20081;-66
2021/10/13 08:52:29;;;;;;;10.68;9.77;;;10.00;73.60;;;;;;5217393;28;20037;-66
2021/10/13 08:55:01;;;;;;;10.82;9.90;;;10.10;75.90;;;;;;5217588;28;20124;-66
2021/10/13 08:57:33;;;;;;;10.68;9.88;;;10.30;76.30;;;;;;5217722;28;20474;-66
2021/10/13 09:00:07;;;;;;;10.77;9.88;;;10.30;76.40;;;;;;5217164;28;20063;-66
2021/10/13 09:02:45;;;;;;;11.07;10.07;;;10.50;75.60;;;;;;5218237;28;20048;-66
2021/10/13 09:05:20;;;;;;;10.68;9.77;;;10.60;74.50;;;;;;5215707;28;20124;-66
2021/10/13 09:07:56;;;;;;;11.73;10.82;;;10.70;73.30;;;;;;5217496;28;20056;-65
2021/10/13 09:10:34;;;;;;;10.73;9.82;;;10.90;75.30;;;;;;5216474;28;20123;-67
2021/10/13 09:13:17;;;;;;;11.07;10.18;;;11.30;73.80;;;;;;5218737;28;20554;-65
2021/10/13 09:15:53;;;;;;;11.43;10.50;;;11.40;72.10;;;;;;5217578;28;20098;-66
2021/10/13 09:18:25;;;;;;;11.73;10.82;;;11.30;70.20;;;;;;5217885;28;20060;-65
2021/10/13 09:20:59;;;;;;;10.70;9.80;;;11.00;70.60;;;;;;5216017;28;20455;-66
2021/10/13 09:23:31;;;;;;;10.40;9.60;;;10.80;71.00;;;;;;5217191;28;20052;-65
2021/10/13 09:26:08;;;;;;;11.10;10.20;;;10.70;71.60;;;;;;5208688;28;20049;-65
2021/10/13 09:28:58;;;;;;;11.00;10.10;;;10.70;72.80;;;;;;5218513;28;20059;-65
2021/10/13 09:31:30;;;;;;;10.68;9.80;;;10.50;69.00;;;;;;5215699;28;20137;-67
2021/10/13 09:34:08;;;;;;;10.40;9.50;;;10.40;73.40;;;;;;5217680;28;20059;-65
2021/10/13 09:36:43;;;;;;;10.98;9.98;;;10.40;72.50;;;;;;5216040;28;21613;-66
2021/10/13 09:39:17;;;;;;;10.68;9.77;;;10.30;73.80;;;;;;5217900;28;20267;-67
2021/10/13 09:42:08;;;;;;;11.15;10.25;;;10.40;74.40;;;;;;5216051;28;20515;-66
2021/10/13 09:44:41;;;;;;;;;;;10.40;74.50;;;;;;5216979;28;20040;-66
2021/10/13 09:47:13;;;;;;;10.63;9.73;;;10.40;75.70;;;;;;5215438;28;19925;-66
2021/10/13 09:49:49;;;;;;;10.45;9.52;;;10.40;75.80;;;;;;5216683;28;20122;-65
2021/10/13 09:52:27;;;;;;;10.57;9.68;;;10.40;73.30;;;;;;5217615;28;20359;-65
2021/10/13 09:55:05;;;;;;;10.98;10.07;;;10.40;72.40;;;;;;5215991;28;20491;-66
2021/10/13 09:57:45;;;;;;;11.00;10.10;;;10.30;72.10;;;;;;5217180;28;20099;-67
2021/10/13 10:00:22;;;;;;;10.05;9.13;;;10.30;75.00;;;;;;5216310;28;20053;-67
2021/10/13 10:02:58;;;;;;;10.35;9.50;;;10.20;75.20;;;;;;5216898;28;20883;-65
2021/10/13 10:05:33;;;;;;;10.70;9.77;;;10.20;74.30;;;;;;5216282;28;20045;-67
2021/10/13 10:08:13;;;;;;;10.55;9.60;;;10.30;75.70;;;;;;5216246;28;20132;-67
2021/10/13 10:11:05;;;;;;;10.32;9.43;;;10.30;74.90;;;;;;5214200;28;20052;-66
2021/10/13 10:13:42;;;;;;;10.27;9.27;;;10.30;72.20;;;;;;5215700;28;20068;-67
2021/10/13 10:16:27;;;;;;;11.15;10.10;;;10.30;74.60;;;;;;5216209;28;20136;-66
2021/10/13 10:19:22;;;;;;;10.88;9.98;;;10.30;74.10;;;;;;5216284;28;20045;-67
2021/10/13 10:22:07;;;;;;;11.05;10.13;;;10.30;71.50;;;;;;5215485;28;20140;-66
2021/10/13 10:25:05;;;;;;;10.70;9.80;;;10.40;72.60;;;;;;5215710;28;20091;-66
2021/10/13 10:27:37;;;;;;;10.88;9.88;;;10.40;72.60;;;;;;5215778;28;20135;-65
2021/10/13 10:30:09;;;;;;;10.68;9.75;;;10.50;74.40;;;;;;5215464;28;20102;-66
2021/10/13 10:32:53;;;;;;;10.88;10.05;;;10.50;71.50;;;;;;5216300;28;20060;-66
2021/10/13 10:35:25;;;;;;;10.50;9.60;;;10.50;71.60;;;;;;5214740;28;20108;-66
2021/10/13 10:38:04;;;;;;;11.13;10.20;;;10.50;73.50;;;;;;5214217;28;20114;-65
2021/10/13 10:40:40;;;;;;;11.30;10.40;;;10.50;74.10;;;;;;5215700;28;20048;-66
2021/10/13 10:43:18;;;;;;;11.00;10.00;;;10.60;73.00;;;;;;5214308;28;20041;-65
2021/10/13 10:45:58;;;;;;;10.70;9.80;;;10.50;73.00;;;;;;5214082;28;20045;-67
2021/10/13 10:48:47;;;;;;;11.15;10.20;;;10.50;72.30;;;;;;5215780;28;20033;-65
2021/10/13 10:51:19;;;;;;;11.60;10.60;;;10.50;72.50;;;;;;5214514;28;20059;-66
2021/10/13 10:53:51;;;;;;;11.98;10.77;;;10.50;73.60;;;;;;5213159;28;20565;-66
2021/10/13 10:56:30;;;;;;;12.45;11.18;;;10.60;72.00;;;;;;5212791;28;20463;-68
2021/10/13 10:59:08;;;;;;;11.70;10.70;;;10.60;70.40;;;;;;5213661;28;20051;-66
2021/10/13 11:02:05;;;;;;;11.88;10.80;;;10.60;70.00;;;;;;5214851;28;20536;-66
2021/10/13 11:04:37;;;;;;;11.95;10.90;;;10.50;71.50;;;;;;5215423;28;20044;-68
2021/10/13 11:07:27;;;;;;;12.55;11.35;;;10.50;71.40;;;;;;5215931;28;20735;-66
2021/10/13 11:10:09;;;;;;;11.50;10.40;;;10.40;69.40;;;;;;5215588;28;20502;-65
2021/10/13 11:12:49;;;;;;;12.35;11.15;;;10.40;69.30;;;;;;5215267;28;20052;-65
2021/10/13 11:15:24;;;;;;;12.10;11.00;;;10.30;70.50;;;;;;5214229;28;20474;-65
2021/10/13 11:18:09;;;;;;;12.18;11.07;;;10.30;71.70;;;;;;5211611;28;20418;-65
2021/10/13 11:20:42;;;;;;;11.85;10.88;;;10.40;70.60;;;;;;5211526;28;20041;-65
2021/10/13 11:23:16;;;;;;;14.25;11.93;;;10.30;69.50;;;;;;5213527;28;20140;-66
2021/10/13 11:25:53;;;;;;;13.27;11.98;;;10.20;72.30;;;;;;5212909;28;20475;-65
2021/10/13 11:28:36;;;;;;;11.30;10.40;;;10.30;71.40;;;;;;5214112;28;20029;-67
2021/10/13 11:31:09;;;;;;;10.85;9.95;;;10.30;71.10;;;;;;5194026;28;20152;-66
2021/10/13 11:33:41;;;;;;;11.00;10.20;;;10.40;70.50;;;;;;5215253;28;20517;-66
2021/10/13 11:36:14;;;;;;;11.00;10.00;;;10.40;70.70;;;;;;5214465;28;20133;-66
2021/10/13 11:38:46;;;;;;;11.10;10.10;;;10.30;71.10;;;;;;5215064;28;20099;-65
2021/10/13 11:41:17;;;;;;;14.07;12.50;;;10.40;71.60;;;;;;5213887;28;20053;-65
2021/10/13 11:43:49;;;;;;;12.70;11.57;;;10.40;68.90;;;;;;5214845;28;20049;-65
2021/10/13 11:46:21;;;;;;;11.90;10.98;;;10.40;70.30;;;;;;5213967;28;20467;-65
2021/10/13 11:49:02;;;;;;;11.48;10.48;;;10.40;69.70;;;;;;5197031;28;20052;-67
2021/10/13 11:51:34;;;;;;;22.38;19.98;;;10.50;70.00;;;;;;5214527;28;20534;-65
2021/10/13 11:54:06;;;;;;;18.00;15.43;;;10.40;67.90;;;;;;5214844;28;20548;-66
2021/10/13 11:56:39;;;;;;;12.77;11.68;;;10.50;70.10;;;;;;5210624;28;20180;-66
2021/10/13 11:59:12;;;;;;;11.90;10.90;;;10.40;70.20;;;;;;5211501;28;20048;-66
2021/10/13 12:01:43;;;;;;;11.25;10.25;;;10.50;70.50;;;;;;5214790;28;20132;-66
2021/10/13 12:04:18;;;;;;;10.95;10.15;;;10.50;71.10;;;;;;5216415;28;20482;-66
2021/10/13 12:06:50;;;;;;;11.10;10.10;;;10.60;71.00;;;;;;5217324;28;20060;-65
2021/10/13 12:09:23;;;;;;;10.45;9.63;;;10.60;70.70;;;;;;5219169;28;20259;-66
2021/10/13 12:11:55;;;;;;;11.10;10.20;;;10.40;67.10;;;;;;5217662;28;20049;-66
2021/10/13 12:14:35;;;;;;;10.38;9.57;;;10.40;68.90;;;;;;5218813;28;20130;-66
2021/10/13 12:17:30;;;;;;;11.13;10.23;;;10.40;70.00;;;;;;5216456;28;20431;-66
2021/10/13 12:20:14;;;;;;;10.68;9.77;;;10.40;70.00;;;;;;5219305;28;20102;-66
2021/10/13 12:22:50;;;;;;;10.50;9.60;;;10.40;70.40;;;;;;5198988;28;20045;-67
2021/10/13 12:25:30;;;;;;;10.40;9.50;;;10.40;70.90;;;;;;5195915;28;20061;-66
2021/10/13 12:28:02;;;;;;;10.55;9.65;;;10.40;70.90;;;;;;5197326;28;20383;-66
2021/10/13 12:30:38;;;;;;;10.48;9.65;;;10.40;70.80;;;;;;5197811;28;20578;-66
2021/10/13 12:33:15;;;;;;;10.77;9.88;;;10.40;71.10;;;;;;5197493;28;20080;-67
2021/10/13 12:35:47;;;;;;;10.80;9.90;;;10.20;69.60;;;;;;5196870;28;20103;-67
2021/10/13 12:38:21;;;;;;;10.82;9.82;;;10.30;70.70;;;;;;5198535;28;20045;-67
2021/10/13 12:41:02;;;;;;;11.00;9.90;;;10.20;69.50;;;;;;5198586;28;20419;-65
2021/10/13 12:43:49;;;;;;;11.07;10.18;;;10.10;70.20;;;;;;5197357;28;20073;-66
2021/10/13 12:46:27;;;;;;;10.20;9.32;;;10.10;71.30;;;;;;5196252;28;20684;-65
2021/10/13 12:49:15;;;;;;;10.20;9.35;;;10.00;69.90;;;;;;5197245;28;20107;-67
2021/10/13 12:51:58;;;;;;;10.57;9.68;;;9.90;71.20;;;;;;5197179;28;20080;-66
2021/10/13 12:54:55;;;;;;;9.90;9.10;;;9.90;71.30;;;;;;5197224;28;20053;-65
2021/10/13 12:57:29;;;;;;;11.35;10.25;;;10.00;71.90;;;;;;5197805;28;20049;-65
2021/10/13 13:00:03;;;;;;;10.25;9.38;;;10.00;71.90;;;;;;5196879;28;20150;-65
2021/10/13 13:02:51;;;;;;;10.93;10.02;;;10.10;72.00;;;;;;5216681;28;20053;-65
2021/10/13 13:05:23;;;;;;;10.88;10.07;;;10.20;72.00;;;;;;5216980;28;20048;-66
2021/10/13 13:07:55;;;;;;;11.32;10.43;;;10.30;68.40;;;;;;5217662;28;20655;-66
2021/10/13 13:10:27;;;;;;;10.93;10.02;;;10.40;69.20;;;;;;5214914;28;20042;-66
2021/10/13 13:13:01;;;;;;;11.18;10.27;;;10.30;67.80;;;;;;5219167;28;20131;-66
2021/10/13 13:15:33;;;;;;;11.57;10.57;;;10.30;69.40;;;;;;5216548;28;20045;-66
2021/10/13 13:18:06;;;;;;;11.18;10.27;;;10.30;69.40;;;;;;5212143;28;20522;-66
2021/10/13 13:20:38;;;;;;;13.30;12.02;;;10.20;70.20;;;;;;5214619;28;20772;-67
2021/10/13 13:23:10;;;;;;;12.15;11.10;;;10.20;70.00;;;;;;5215699;28;20438;-66
2021/10/13 13:25:42;;;;;;;11.32;10.43;;;10.20;69.30;;;;;;5215979;28;20041;-66
2021/10/13 13:28:16;;;;;;;11.82;10.82;;;10.20;69.50;;;;;;5199064;28;20048;-66